• Join FlightAware (Why Join?)
  • Login
  • US Flag 
02:18PM EDT


 

Airport Tracker/Info


-or-


 

Live Flight TrackerFlight Track Log ✈ N712WB ✈ 02-Aug-2013 ✈ KBZN - KHDC

Flight Track Log - Related Links

Times and Time Zones

All times are in EDT time to prevent confusion due to time zone crossing. See the N712WB flight status page for this flight to view local times or setup timezone preferences in your user account.

Time Position Orientation Groundspeed Altitude Reporting Facility
EDT Latitude Longitude Course Direction KTS MPH feet Rate Location/Type
01:48PM 45.7981 -111.2156 126° Southeast 209 241 6,700  Level Salt Lake Center
01:49PM 45.7450 -111.2758 218° Southwest 223 257 10,300 3,060 Climbing Salt Lake Center
01:50PM 45.6869 -111.2322 152° Southeast 243 280 13,100 1,980 Climbing Salt Lake Center
01:51PM 45.6372 -111.1464 130° Southeast 293 337 14,500 1,860 Climbing Salt Lake Center
01:52PM 45.6317 -111.0125 93° East 343 395 17,000 2,040 Climbing Salt Lake Center
01:53PM 45.2808 -110.1949 126° Southeast  Level Estimated
01:53PM 45.6408 -110.8411 86° East 366 421 18,800  Level Salt Lake Center
01:54PM 45.6478 -110.6706 87° East 432 497 19,500 1,320 Climbing Salt Lake Center
01:55PM 45.6611 -110.4778 84° East 445 512 21,600 1,800 Climbing Salt Lake Center
01:56PM 45.6714 -110.2972 85° East 454 522 23,300 1,560 Climbing Salt Lake Center
01:57PM 45.6433 -110.1206 103° East 462 532 24,900 1,620 Climbing Salt Lake Center
01:58PM 45.5669 -109.9775 127° Southeast 452 520 26,700 1,620 Climbing Salt Lake Center
01:59PM 45.4819 -109.8436 132° Southeast 454 522 28,300 1,500 Climbing Salt Lake Center
02:00PM 45.3961 -109.7064 132° Southeast 463 533 29,900 1,560 Climbing Salt Lake Center
02:01PM 45.2894 -109.5397 132° Southeast 474 545 31,600 1,440 Climbing Salt Lake Center
02:02PM 45.1994 -109.3978 132° Southeast 483 556 32,900 1,200 Climbing Salt Lake Center
02:03PM 45.1069 -109.2539 132° Southeast 493 567 34,200 1,500 Climbing Salt Lake Center
02:05PM 45.0142 -109.1097 132° Southeast 497 572 36,000 1,560 Climbing Salt Lake Center
02:06PM 44.9211 -108.9678 133° Southeast 493 567 37,500 1,440 Climbing Salt Lake Center
02:07PM 44.8297 -108.8264 132° Southeast 491 565 39,000 1,380 Climbing Salt Lake Center
02:08PM 44.7186 -108.6564 133° Southeast 496 571 40,400 960 Climbing Salt Lake Center
02:09PM 44.6253 -108.5158 133° Southeast 497 572 41,000 240 Climbing Salt Lake Center
02:10PM 44.5283 -108.3692 133° Southeast 516 594 41,000  Level Salt Lake Center
02:11PM 44.4278 -108.2175 133° Southeast 534 615 41,000  Level Salt Lake Center
02:12PM 44.3044 -108.0336 133° Southeast 545 627 41,000  Level Salt Lake Center
02:13PM 44.2017 -107.8800 133° Southeast 546 628 41,000  Level Salt Lake Center
02:14PM 44.0983 -107.7269 133° Southeast 547 629 41,000  Level Salt Lake Center
02:15PM 43.9936 -107.5728 133° Southeast 549 632 41,000  Level Salt Lake Center
02:16PM 43.8883 -107.4208 134° Southeast 550 633 41,000  Level Salt Lake Center
02:17PM 43.7819 -107.2675 134° Southeast 553 636 41,000  Level Salt Lake Center
02:18PM 43.6550 -107.0814 133° Southeast 556 640 41,000  Level Salt Lake Center
02:19PM 43.5486 -106.9325 135° Southeast 551 634 41,000  Level Salt Lake Center
02:20PM 43.4439 -106.7828 134° Southeast 556 640 41,000  Level Salt Lake Center
02:21PM 43.3233 -106.6117 134° Southeast 558 642 41,000  Level Salt Lake Center
02:22PM 43.2206 -106.4647 134° Southeast 557 641 41,000  Level Salt Lake Center
02:23PM 43.1006 -106.2942 134° Southeast 557 641 41,000  Level Salt Lake Center
02:24PM 43.0117 -106.1297 126° Southeast 559 643 41,000  Level Salt Lake Center
02:25PM 42.9075 -105.9364 126° Southeast 564 649 41,000  Level Salt Lake Center
02:26PM 42.8197 -105.7719 126° Southeast 563 648 41,000  Level Salt Lake Center
02:28PM 42.6853 -105.5253 127° Southeast 566 651 41,000  Level Denver Center
02:29PM 42.5808 -105.3336 126° Southeast 567 652 41,000  Level Denver Center
02:30PM 42.4906 -105.1694 127° Southeast 570 656 41,000  Level Denver Center
02:31PM 42.3689 -104.9511 127° Southeast 573 659 41,000  Level Denver Center
02:32PM 42.2608 -104.7589 127° Southeast 580 667 41,000  Level Denver Center
02:33PM 42.1692 -104.5961 127° Southeast 577 664 41,000  Level Denver Center
02:34PM 42.0617 -104.4039 127° Southeast 579 666 41,000  Level Denver Center
02:35PM 41.9386 -104.1856 127° Southeast 576 663 41,000  Level Denver Center
02:36PM 41.8464 -104.0233 127° Southeast 573 659 41,000  Level Denver Center
02:37PM 41.7369 -103.8353 128° Southeast 574 661 41,000  Level Denver Center
02:38PM 41.6444 -103.6739 127° Southeast 572 658 41,000  Level Denver Center
02:39PM 41.5358 -103.4856 128° Southeast 573 659 41,000  Level Denver Center
02:41PM 41.4406 -103.3267 129° Southeast 574 661 41,000  Level Denver Center
02:42PM 41.3319 -103.1400 128° Southeast 572 658 41,000  Level Denver Center
02:43PM 41.2142 -102.9386 128° Southeast 576 663 41,000  Level Denver Center
02:44PM 41.1189 -102.7811 129° Southeast 573 659 41,000  Level Denver Center
02:45PM 41.0089 -102.5975 128° Southeast 572 658 41,000  Level Denver Center
02:46PM 40.9133 -102.4400 129° Southeast 574 661 41,000  Level Denver Center
02:47PM 40.8036 -102.2564 128° Southeast 571 657 41,000  Level Denver Center
02:48PM 40.7086 -102.1006 129° Southeast 570 656 41,000  Level Denver Center
02:49PM 40.5967 -101.9178 129° Southeast 575 662 41,000  Level Denver Center
02:50PM 40.5003 -101.7622 129° Southeast 575 662 41,000  Level Denver Center
02:51PM 40.3892 -101.5819 129° Southeast 572 658 41,000  Level Denver Center
02:52PM 40.2936 -101.4289 129° Southeast 571 657 41,000  Level Denver Center
02:53PM 40.1647 -101.2214 129° Southeast 578 665 41,000  Level Denver Center
02:54PM 40.0850 -101.0939 129° Southeast 574 661 41,000  Level Denver Center
02:55PM 39.9553 -100.8886 129° Southeast 578 665 41,000  Level Denver Center
02:56PM 39.8422 -100.7114 130° Southeast 574 661 41,000  Level Denver Center
02:57PM 39.7450 -100.5597 130° Southeast 573 659 41,000  Level Denver Center
02:59PM 39.6475 -100.4072 130° Southeast 574 661 41,000  Level Denver Center
03:00PM 39.5339 -100.2306 130° Southeast 573 659 41,000  Level Denver Center
03:01PM 39.4533 -100.1067 130° Southeast 568 654 41,000  Level Denver Center
03:02PM 39.3233 -99.9072 130° Southeast 569 655 41,000  Level Denver Center
03:03PM 39.2175 -99.7475 131° Southeast 568 654 41,000  Level Denver Center
03:04PM 39.1019 -99.5697 130° Southeast 579 666 41,000  Level Kansas City Center
03:05PM 39.0119 -99.4358 131° Southeast 572 658 41,000  Level Kansas City Center
03:06PM 38.8881 -99.2528 131° Southeast 567 652 41,000  Level Kansas City Center
03:07PM 38.7864 -99.0983 130° Southeast 566 651 41,000  Level Kansas City Center
03:08PM 38.6831 -98.9447 131° Southeast 568 654 41,000  Level Kansas City Center
03:09PM 38.5800 -98.7931 131° Southeast 566 651 41,000  Level Kansas City Center
03:10PM 38.4772 -98.6411 131° Southeast 565 650 41,000  Level Kansas City Center
03:11PM 38.3744 -98.4906 131° Southeast 565 650 41,000  Level Kansas City Center
03:12PM 38.2506 -98.3108 131° Southeast 563 648 41,000  Level Kansas City Center
03:13PM 38.1478 -98.1606 131° Southeast 562 647 41,000  Level Kansas City Center
03:14PM 38.0375 -98.0017 131° Southeast 559 643 41,000  Level Kansas City Center
03:15PM 37.9322 -97.8519 132° Southeast 561 646 41,000  Level Kansas City Center
03:16PM 37.8261 -97.7003 132° Southeast 566 651 41,000  Level Kansas City Center
03:17PM 37.7208 -97.5539 132° Southeast 566 651 41,000  Level Kansas City Center
03:18PM 37.6069 -97.4222 137° Southeast 546 628 41,000  Level Kansas City Center
03:19PM 37.4931 -97.2911 138° Southeast 554 638 41,000  Level Kansas City Center
03:20PM 37.3794 -97.1581 137° Southeast 556 640 41,000  Level Kansas City Center
03:21PM 37.2411 -97.0019 138° Southeast 557 641 41,000  Level Kansas City Center
03:22PM 37.1261 -96.8719 138° Southeast 556 640 41,000  Level Kansas City Center
03:23PM 37.0106 -96.7428 138° Southeast 554 638 41,000  Level Kansas City Center
03:24PM 36.8981 -96.6150 138° Southeast 550 633 41,000  Level Kansas City Center
03:26PM 36.7858 -96.4844 137° Southeast 551 634 41,000  Level Kansas City Center
03:27PM 36.6725 -96.3578 138° Southeast 550 633 41,000  Level Kansas City Center
03:28PM 36.5372 -96.2056 138° Southeast 548 631 41,000  Level Kansas City Center
03:29PM 36.4236 -96.0817 139° Southeast 546 628 41,000  Level Kansas City Center
03:30PM 36.3108 -95.9553 138° Southeast 549 632 41,000  Level Kansas City Center
03:31PM 36.1983 -95.8308 138° Southeast 548 631 41,000  Level Kansas City Center
03:32PM 36.0706 -95.6900 138° Southeast 549 632 41,000  Level Kansas City Center
03:33PM 35.9500 -95.5581 138° Southeast 547 629 41,000  Level Kansas City Center
03:34PM 35.8367 -95.4339 138° Southeast 547 629 41,000  Level Kansas City Center
03:35PM 35.7225 -95.3100 139° Southeast 549 632 41,000  Level Kansas City Center
03:36PM 35.6075 -95.1858 139° Southeast 550 633 41,000  Level Kansas City Center
03:37PM 35.4881 -95.0639 140° Southeast 547 629 41,000  Level Memphis Center
03:38PM 35.3717 -94.9428 140° Southeast 552 635 41,000  Level Memphis Center
03:39PM 35.2572 -94.8197 139° Southeast 552 635 41,000  Level Memphis Center
03:40PM 35.1447 -94.6994 139° Southeast 552 635 41,000  Level Memphis Center
03:41PM 35.0200 -94.5586 137° Southeast 557 641 41,000  Level Memphis Center
03:42PM 34.9153 -94.4469 139° Southeast 562 647 41,000  Level Memphis Center
03:43PM 34.8042 -94.3353 140° Southeast 551 634 41,000  Level Memphis Center
03:44PM 34.6892 -94.2089 138° Southeast 551 634 41,000  Level Memphis Center
03:45PM 34.5758 -94.0953 140° Southeast 546 628 41,000  Level Memphis Center
03:46PM 34.3956 -93.9028 139° Southeast 535 616 41,000  Level Fort Worth Center
03:47PM 34.2858 -93.7889 139° Southeast 529 609 41,000  Level Fort Worth Center
03:48PM 34.1739 -93.6706 139° Southeast 529 609 41,000  Level Fort Worth Center
03:49PM 34.0619 -93.5578 140° Southeast 524 603 41,000  Level Fort Worth Center
03:50PM 33.9497 -93.4375 138° Southeast 524 603 41,000  Level Fort Worth Center
03:51PM 33.8378 -93.3275 141° Southeast 524 603 41,000  Level Fort Worth Center
03:52PM 33.7233 -93.2106 140° Southeast 524 603 41,000  Level Fort Worth Center
03:53PM 33.6108 -93.0961 140° Southeast 529 609 41,000  Level Fort Worth Center
03:54PM 33.4961 -92.9797 140° Southeast 529 609 41,000  Level Fort Worth Center
03:55PM 33.3814 -92.8661 140° Southeast 535 616 41,000  Level Fort Worth Center
03:56PM 33.2689 -92.7553 141° Southeast 535 616 41,000  Level Fort Worth Center
03:57PM 33.1500 -92.6475 143° Southeast 535 616 41,000  Level Fort Worth Center
03:58PM 33.0314 -92.5422 143° Southeast 535 616 41,000  Level Fort Worth Center
03:59PM 32.9081 -92.4350 144° Southeast 542 624 41,000  Level Fort Worth Center
04:00PM 32.8064 -92.3419 142° Southeast 536 617 41,000  Level Fort Worth Center
04:01PM 32.6872 -92.2375 144° Southeast 536 617 41,000 -720 Level Fort Worth Center
04:03PM 32.4517 -92.0419 145° Southeast 525 604 39,000 -1,080 Descending Fort Worth Center
04:05PM 32.2653 -91.8794 144° Southeast 529 609 37,400 -1,080 Descending Houston Center
04:06PM 32.1425 -91.7750 144° Southeast 540 621 36,400 -1,020 Descending Houston Center
04:07PM 32.0250 -91.6736 144° Southeast 524 603 35,400 -1,380 Descending Houston Center
04:08PM 31.9047 -91.5719 144° Southeast 528 608 33,600 -2,340 Descending Houston Center
04:09PM 31.7825 -91.4683 144° Southeast 537 618 30,600 -2,880 Descending Houston Center
04:10PM 31.6594 -91.3647 144° Southeast 539 620 27,700 -3,120 Descending Houston Center
04:11PM 31.5242 -91.2511 144° Southeast 503 579 24,200 -2,580 Descending Houston Center
04:12PM 31.4114 -91.1708 149° Southeast 477 549 22,400 -2,040 Descending Houston Center
04:13PM 31.3042 -91.0972 150° Southeast 458 527 20,000 -2,340 Descending Houston Center
04:14PM 31.2000 -91.0258 150° Southeast 440 506 17,600 -2,400 Descending Houston Center
04:15PM 31.0958 -90.9553 150° Southeast 436 502 15,100 -2,940 Descending Houston Center
04:16PM 31.0006 -90.8864 148° Southeast 395 455 12,000 -2,280 Descending Houston Center
04:17PM 30.9147 -90.7969 138° Southeast 353 406 10,500 -1,680 Descending Houston Center
04:18PM 30.8419 -90.7250 140° Southeast 298 343 8,200 -2,160 Descending Houston Center
04:19PM 30.7875 -90.6778 143° Southeast 297 342 6,100 -2,160 Descending Houston Center
04:20PM 30.7256 -90.6183 140° Southeast 292 336 4,100 -1,260 Descending Houston Center
04:21PM 30.6703 -90.5619 139° Southeast 290 334 3,600 -540 Descending Houston Center
04:23PM 30.5586 -90.4481 147° Southeast  Level FlightAware Approximate
04:30PM 30.5167 -90.4167 147° Southeast  Level FlightAware Approximate
04:31PM 30.5217 -90.4184 147° Southeast  Level Estimated
04:32PM 30.5167 -90.4167 147° Southeast  Level FlightAware Approximate
04:33PM 30.5217 -90.4184 147° Southeast  Level Estimated
04:34PM 30.5167 -90.4167 147° Southeast  Level FlightAware Approximate
04:35PM 30.5217 -90.4184 147° Southeast  Level Estimated
04:36PM 30.5167 -90.4167 147° Southeast  Level FlightAware Approximate
04:37PM 30.5217 -90.4184 147° Southeast  Level Estimated
04:38PM 30.5167 -90.4167 147° Southeast  Level FlightAware Approximate
04:39PM 30.5217 -90.4184 147° Southeast  Level Estimated